Have a Safe July 4th! 

Flight Track Log - Related Links

Times and Time Zones

All times are in EDT time to prevent confusion due to time zone crossing. See the EJA941 flight status page for this flight to view local times or setup timezone preferences in your user account.

Time Position Orientation Groundspeed Altitude Reporting Facility
EDT Latitude Longitude Course Direction KTS MPH feet Rate Location/Type
Tue 12:21:24 PM 32.8333 -96.8333 128° Southeast 173 199 1,400  Level Dallas / Fort Worth TRACON
Tue 12:22:30 PM 32.8000 -96.7833 128° Southeast 211 243 4,700 2,657 Climbing Dallas / Fort Worth TRACON
Tue 12:24:45 PM 32.7997 -96.6300 90° East 243 280 10,300 2,123 Climbing Fort Worth Center
Tue 12:25:45 PM 32.8533 -96.5356 56° Northeast 289 333 11,600 1,200 Climbing Fort Worth Center
Tue 12:26:45 PM 32.9047 -96.4483 55° Northeast 340 391 12,700 1,300 Climbing Fort Worth Center
Tue 12:27:45 PM 32.9667 -96.3364 57° Northeast 365 420 14,200 1,400 Climbing Fort Worth Center
Tue 12:28:45 PM 32.9864 -96.2272 78° East 365 420 15,500 1,350 Climbing Fort Worth Center
Tue 12:29:45 PM 33.0058 -96.0856 81° East 381 438 16,900 1,200 Climbing Fort Worth Center
Tue 12:30:45 PM 33.0214 -95.9714 81° East 391 450 17,900 1,200 Climbing Fort Worth Center
Tue 12:31:45 PM 33.0406 -95.8250 81° East 391 450 19,300 1,350 Climbing Fort Worth Center
Tue 12:32:45 PM 33.0597 -95.7081 79° East 397 457 20,600 1,300 Climbing Fort Worth Center
Tue 12:33:45 PM 33.1019 -95.5808 68° East 397 457 21,900 1,300 Climbing Fort Worth Center
Tue 12:34:45 PM 33.1542 -95.4533 64° Northeast 407 468 23,200 1,350 Climbing Fort Worth Center
Tue 12:35:45 PM 33.2086 -95.3253 63° Northeast 421 484 24,600 1,300 Climbing Fort Worth Center
Tue 12:36:45 PM 33.2625 -95.1900 64° Northeast 434 499 25,800 1,200 Climbing Fort Worth Center
Tue 12:37:45 PM 33.3144 -95.0544 65° Northeast 434 499 27,000 1,150 Climbing Fort Worth Center
Tue 12:38:45 PM 33.3722 -94.9136 64° Northeast 444 511 28,100 1,150 Climbing Fort Worth Center
Tue 12:39:45 PM 33.4297 -94.7700 64° Northeast 461 531 29,300 1,200 Climbing Fort Worth Center
Tue 12:40:45 PM 33.4869 -94.6214 65° Northeast 471 542 30,500 1,350 Climbing Fort Worth Center
Tue 12:41:45 PM 33.5503 -94.4600 65° Northeast 476 548 32,000 1,500 Climbing Fort Worth Center
Tue 12:42:45 PM 33.6114 -94.3108 64° Northeast 481 554 33,500 1,550 Climbing Fort Worth Center
Tue 12:43:45 PM 33.6681 -94.1589 66° East 486 559 35,100 1,534 Climbing Fort Worth Center
Tue 12:45:41 PM 33.7764 -93.8858 64° Northeast 476 548 38,000 1,534 Climbing Memphis Center
Tue 12:46:41 PM 33.8328 -93.7356 66° East 476 548 39,600 1,500 Climbing Memphis Center
Tue 12:47:41 PM 33.8867 -93.5900 66° East 476 548 41,000 700 Climbing Memphis Center
Tue 12:48:41 PM 33.9447 -93.4394 65° Northeast 476 548 41,000  Level Memphis Center
Tue 12:49:41 PM 34.0050 -93.2861 65° Northeast 487 560 41,000  Level Memphis Center
Tue 12:50:41 PM 34.0628 -93.1278 66° East 499 574 41,000  Level Memphis Center
Tue 12:51:41 PM 34.1203 -92.9717 66° East 499 574 41,000  Level Memphis Center
Tue 12:52:41 PM 34.1800 -92.8128 66° East 504 580 41,000  Level Memphis Center
Tue 12:53:41 PM 34.2439 -92.6386 66° East 511 588 41,000  Level Memphis Center
Tue 12:54:41 PM 34.3031 -92.4767 66° East 516 594 41,000  Level Memphis Center
Tue 12:55:41 PM 34.3597 -92.3172 67° East 511 588 41,000  Level Memphis Center
Tue 12:56:41 PM 34.4186 -92.1597 66° East 516 594 41,000  Level Memphis Center
Tue 12:57:41 PM 34.4750 -91.9997 67° East 516 594 41,000  Level Memphis Center
Tue 12:58:41 PM 34.5356 -91.8372 66° East 516 594 41,000  Level Memphis Center
Tue 12:59:41 PM 34.5936 -91.6817 66° East 516 594 41,000  Level Memphis Center
Tue 01:00:41 PM 34.6431 -91.5386 67° East 516 594 41,000  Level Memphis Center
Tue 01:01:41 PM 34.7028 -91.3778 66° East 516 594 41,000  Level Memphis Center
Tue 01:02:41 PM 34.7603 -91.2167 66° East 516 594 41,000  Level Memphis Center
Tue 01:03:41 PM 34.8156 -91.0553 67° East 516 594 41,000  Level Memphis Center
Tue 01:04:41 PM 34.8728 -90.8964 66° East 512 589 41,000  Level Memphis Center
Tue 01:05:41 PM 34.9317 -90.7294 67° East 517 595 41,000  Level Memphis Center
Tue 01:06:41 PM 34.9925 -90.5472 68° East 517 595 41,000  Level Memphis Center
Tue 01:07:41 PM 35.0511 -90.3850 66° East 517 595 41,000  Level Memphis Center
Tue 01:08:41 PM 35.1094 -90.2200 67° East 517 595 41,000  Level Memphis Center
Tue 01:09:41 PM 35.1656 -90.0547 67° East 522 601 41,000  Level Memphis Center
Tue 01:10:41 PM 35.2214 -89.8919 67° East 517 595 41,000  Level Memphis Center
Tue 01:11:41 PM 35.2708 -89.7442 68° East 517 595 41,000  Level Memphis Center
Tue 01:12:41 PM 35.3303 -89.5631 68° East 517 595 41,000  Level Memphis Center
Tue 01:13:41 PM 35.3814 -89.4147 67° East 517 595 41,000  Level Memphis Center
Tue 01:14:41 PM 35.4342 -89.2486 69° East 517 595 41,000  Level Memphis Center
Tue 01:15:41 PM 35.4889 -89.0872 67° East 517 595 41,000  Level Memphis Center
Tue 01:16:41 PM 35.5475 -88.9078 68° East 517 595 41,000  Level Memphis Center
Tue 01:17:41 PM 35.5894 -88.7614 71° East 503 579 41,000  Level Memphis Center
Tue 01:18:41 PM 35.6436 -88.5994 68° East 503 579 41,000  Level Memphis Center
Tue 01:19:41 PM 35.6975 -88.4372 68° East 503 579 41,000  Level Memphis Center
Tue 01:20:41 PM 35.7511 -88.2722 68° East 508 585 41,000  Level Memphis Center
Tue 01:21:41 PM 35.8106 -88.0992 67° East 503 579 41,000  Level Memphis Center
Tue 01:22:41 PM 35.8617 -87.9364 69° East 498 573 41,000  Level Memphis Center
Tue 01:23:41 PM 35.9128 -87.7761 68° East 503 579 41,000  Level Memphis Center
Tue 01:24:41 PM 35.9575 -87.6286 69° East 503 579 41,000  Level Memphis Center
Tue 01:25:41 PM 36.0100 -87.4625 69° East 509 586 41,000  Level Memphis Center
Tue 01:26:41 PM 36.0583 -87.3017 70° East 504 580 41,000  Level Memphis Center
Tue 01:27:41 PM 36.1083 -87.1381 69° East 504 580 41,000  Level Memphis Center
Tue 01:28:41 PM 36.1561 -86.9742 70° East 504 580 41,000  Level Memphis Center
Tue 01:29:41 PM 36.2078 -86.8072 69° East 499 574 41,000  Level Memphis Center
Tue 01:30:41 PM 36.2569 -86.6378 70° East 517 595 41,000  Level Memphis Center
Tue 01:31:41 PM 36.3106 -86.4758 68° East 512 589 41,000  Level Memphis Center
Tue 01:32:41 PM 36.3614 -86.3108 69° East 506 582 41,000  Level Memphis Center
Tue 01:33:41 PM 36.4122 -86.1461 69° East 506 582 41,000  Level Memphis Center
Tue 01:34:41 PM 36.4606 -85.9783 70° East 511 588 41,000  Level Memphis Center
Tue 01:36:06 PM 36.5308 -85.7486 69° East 514 592 41,000  Level Indianapolis Center
Tue 01:37:08 PM 36.5794 -85.5825 70° East 510 587 41,000  Level Indianapolis Center
Tue 01:38:10 PM 36.6272 -85.4169 70° East 507 583 41,000  Level Indianapolis Center
Tue 01:39:12 PM 36.6853 -85.2189 70° East 506 582 41,000  Level Indianapolis Center
Tue 01:40:14 PM 36.7317 -85.0536 71° East 507 583 41,000  Level Indianapolis Center
Tue 01:41:15 PM 36.7792 -84.8881 70° East 506 582 41,000  Level Indianapolis Center
Tue 01:42:17 PM 36.8267 -84.7214 70° East 506 582 41,000  Level Indianapolis Center
Tue 01:43:19 PM 36.8736 -84.5553 70° East 507 583 41,000  Level Indianapolis Center
Tue 01:44:21 PM 36.9250 -84.3694 71° East 507 583 41,000  Level Indianapolis Center
Tue 01:45:23 PM 36.9717 -84.2017 71° East 508 585 41,000  Level Indianapolis Center
Tue 01:46:25 PM 37.0189 -84.0336 71° East 511 588 41,000  Level Indianapolis Center
Tue 01:47:27 PM 37.0656 -83.8664 71° East 509 586 41,000  Level Indianapolis Center
Tue 01:48:29 PM 37.1122 -83.6994 71° East 508 585 41,000  Level Indianapolis Center
Tue 01:49:31 PM 37.1586 -83.5308 71° East 511 588 41,000  Level Indianapolis Center
Tue 01:50:32 PM 37.2106 -83.3350 72° East 507 583 41,000  Level Indianapolis Center
Tue 01:51:34 PM 37.2564 -83.1672 71° East 504 580 41,000  Level Indianapolis Center
Tue 01:52:36 PM 37.3019 -82.9981 71° East 506 582 41,000  Level Indianapolis Center
Tue 01:53:38 PM 37.3467 -82.8283 72° East 507 583 41,000  Level Indianapolis Center
Tue 01:54:40 PM 37.3919 -82.6586 71° East 507 583 41,000  Level Indianapolis Center
Tue 01:55:42 PM 37.4358 -82.4900 72° East 505 581 41,000  Level Indianapolis Center
Tue 01:56:43 PM 37.4794 -82.3217 72° East 505 581 41,000  Level Indianapolis Center
Tue 01:57:45 PM 37.5228 -82.1531 72° East 505 581 41,000  Level Indianapolis Center
Tue 01:58:47 PM 37.5742 -81.9539 72° East 509 586 41,000  Level Indianapolis Center
Tue 01:59:49 PM 37.6169 -81.7828 72° East 512 589 41,000  Level Indianapolis Center
Tue 02:00:51 PM 37.6603 -81.6111 72° East 512 589 41,000  Level Indianapolis Center
Tue 02:01:52 PM 37.7022 -81.4442 72° East 515 593 41,000  Level Indianapolis Center
Tue 02:02:54 PM 37.7431 -81.2747 73° East 515 593 41,000  Level Indianapolis Center
Tue 02:03:56 PM 37.7856 -81.0683 75° East 519 597 41,000  Level Indianapolis Center
Tue 02:04:58 PM 37.7961 -80.8914 86° East 518 596 41,000  Level Indianapolis Center
Tue 02:06:00 PM 37.8072 -80.7156 85° East 516 594 41,000  Level Indianapolis Center
Tue 02:07:01 PM 37.8189 -80.5169 86° East 520 598 41,000  Level Indianapolis Center
Tue 02:08:03 PM 37.8317 -80.3222 85° East 524 603 41,000  Level Indianapolis Center
Tue 02:09:05 PM 37.8422 -80.1417 86° East 527 606 41,000  Level Indianapolis Center
Tue 02:10:13 PM 37.8572 -79.9264 85° East 519 597 41,000  Level Washington Center
Tue 02:11:14 PM 37.8700 -79.7431 85° East 519 597 41,000  Level Washington Center
Tue 02:12:15 PM 37.8806 -79.5542 86° East 519 597 41,000  Level Washington Center
Tue 02:13:13 PM 37.8881 -79.3833 87° East 526 605 41,000  Level Washington Center
Tue 02:14:13 PM 37.9000 -79.1972 85° East 534 615 41,000  Level Washington Center
Tue 02:15:14 PM 37.9161 -79.0083 84° East 534 615 41,000  Level Washington Center
Tue 02:16:15 PM 37.9381 -78.8225 81° East 534 615 41,000  Level Washington Center
Tue 02:17:15 PM 37.9617 -78.6364 81° East 534 615 41,000  Level Washington Center
Tue 02:18:13 PM 37.9853 -78.4292 82° East 544 626 41,000  Level Washington Center
Tue 02:19:13 PM 38.0086 -78.2403 81° East 539 620 41,000  Level Washington Center
Tue 02:20:14 PM 38.0561 -78.0628 71° East 528 608 41,000  Level Washington Center
Tue 02:21:15 PM 38.1428 -77.8939 57° Northeast 542 624 41,000 -450 Level Washington Center
Tue 02:22:14 PM 38.2275 -77.7169 59° Northeast 557 641 40,100 -1,613 Descending Washington Center
Tue 02:23:14 PM 38.3117 -77.5525 57° Northeast 562 647 37,800 -2,300 Descending Washington Center
Tue 02:24:14 PM 38.3978 -77.3772 58° Northeast 568 654 35,500 -2,281 Descending Washington Center
Tue 02:25:15 PM 38.4858 -77.1964 58° Northeast 580 667 33,200 -2,300 Descending Washington Center
Tue 02:26:14 PM 38.5692 -77.0256 58° Northeast 580 667 30,900 -1,613 Descending Washington Center
Tue 02:27:14 PM 38.6525 -76.8544 58° Northeast 566 651 30,000 -446 Descending Washington Center
Tue 02:28:15 PM 38.7436 -76.6989 53° Northeast 556 640 30,000  Level Washington Center
Tue 02:29:15 PM 38.8572 -76.5672 42° Northeast 548 631 30,000 -458 Level Washington Center
Tue 02:30:13 PM 38.9686 -76.4406 41° Northeast 542 624 29,100 -2,136 Descending Washington Center
Tue 02:31:13 PM 39.0758 -76.3161 42° Northeast 523 602 25,800 -2,529 Descending Washington Center
Tue 02:32:14 PM 39.1744 -76.2019 42° Northeast 493 567 24,000 -1,698 Descending Washington Center
Tue 02:34:45 PM 39.4333 -75.9333 39° Northeast 469 540 19,800 -1,714 Descending Philadelphia TRACON
Tue 02:35:51 PM 39.5500 -75.8333 33° Northeast 444 511 17,800 -2,474 Descending Philadelphia TRACON
Tue 02:36:39 PM 39.6333 -75.7500 38° Northeast 417 480 15,100 -2,526 Descending Philadelphia TRACON
Tue 02:37:45 PM 39.7333 -75.6667 33° Northeast 391 450 13,000 -1,000 Descending Philadelphia TRACON
Tue 02:38:45 PM 39.8167 -75.5833 38° Northeast 415 478 13,000  Level Philadelphia TRACON
Tue 02:39:51 PM 39.9167 -75.4833 37° Northeast 400 460 13,000  Level Philadelphia TRACON
Tue 02:40:51 PM 40.0167 -75.4000 33° Northeast 409 471 13,000  Level Philadelphia TRACON
Tue 02:41:51 PM 40.1000 -75.3167 37° Northeast 321 369 13,000  Level Philadelphia TRACON
Tue 02:42:46 PM 40.1500 -75.2667 37° Northeast 289 333 13,000 -1,041 Level Philadelphia TRACON
Tue 02:45:07 PM 40.3167 -75.1167 34° Northeast 288 331 9,600 -1,415 Descending New York TRACON
Tue 02:46:01 PM 40.3500 -75.0667 49° Northeast 281 323 8,400 -1,300 Descending New York TRACON
Tue 02:47:07 PM 40.4167 -74.9833 44° Northeast 263 303 7,000 -900 Descending New York TRACON
Tue 02:48:01 PM 40.4500 -74.9167 57° Northeast 259 298 6,600 -947 Descending New York TRACON
Tue 02:49:01 PM 40.5000 -74.8500 45° Northeast 246 283 5,200 -1,339 Descending New York TRACON
Tue 02:50:02 PM 40.5333 -74.7667 62° Northeast 262 302 3,900 -1,100 Descending New York TRACON
Tue 02:51:01 PM 40.5667 -74.6833 62° Northeast 254 292 3,000 -454 Descending New York TRACON
Tue 02:52:01 PM 40.6000 -74.6000 62° Northeast 244 281 3,000  Level New York TRACON
Tue 02:53:01 PM 40.6167 -74.5167 75° East 252 290 3,000  Level New York TRACON
Tue 02:54:01 PM 40.6500 -74.4333 62° Northeast 250 288 3,000 -500 Level New York TRACON
Tue 02:55:01 PM 40.6833 -74.3667 57° Northeast 211 243 2,000 -496 Descending New York TRACON
Tue 02:56:02 PM 40.7000 -74.3000 72° East 201 231 2,000 -200 Level New York TRACON
Tue 02:57:01 PM 40.7333 -74.2500 49° Northeast 187 215 1,600 -240 Descending New York TRACON
Tue 02:58:07 PM 40.7667 -74.1833 57° Northeast 187 215 1,500 -95 Descending New York TRACON
Tue 02:59:07 PM 40.8000 -74.1333 49° Northeast 180 207 1,400 -450 Descending New York TRACON
Tue 03:00:07 PM 40.8333 -74.1000 37° Northeast 132 152 600 -800 Descending New York TRACON
Tue 03:02:00 PM 40.8501 -74.0608 57° Northeast  Level Estimated

Login

Don't have an account? Register now (free) for customized features, flight alerts, and more!